createdAt,value
2019-02-24T04:45:54.234Z,5.77
2019-02-24T04:48:35.842Z,5.50
2019-02-24T04:51:18.158Z,6.40
2019-02-24T04:54:00.314Z,6.33
2019-02-24T04:56:42.549Z,5.87
2019-02-24T04:59:34.563Z,6.00
2019-02-24T05:02:08.103Z,6.03
2019-02-24T05:04:50.429Z,7.30
2019-02-24T05:07:32.393Z,7.83
2019-02-24T05:10:14.709Z,7.30
2019-02-24T05:12:56.998Z,7.43
2019-02-24T05:15:27.407Z,6.17
2019-02-24T05:17:57.727Z,6.67
2019-02-24T05:20:47.070Z,6.03
2019-02-24T05:23:29.308Z,7.63
2019-02-24T05:26:11.562Z,7.57
2019-02-24T05:28:53.637Z,6.33
2019-02-24T05:31:35.866Z,6.63
2019-02-24T05:34:17.907Z,6.63
2019-02-24T05:36:59.881Z,6.60
2019-02-24T05:39:41.834Z,7.40
2019-02-24T05:42:24.014Z,8.30
2019-02-24T05:45:05.870Z,8.33
2019-02-24T05:47:47.974Z,7.97
2019-02-24T05:50:30.052Z,8.10
2019-02-24T05:53:12.313Z,7.47
2019-02-24T05:55:42.623Z,7.80
2019-02-24T05:58:24.184Z,7.50
2019-02-24T06:01:06.349Z,8.13
2019-02-24T06:03:48.749Z,8.70
2019-02-24T06:06:31.132Z,8.17
2019-02-24T06:09:14.356Z,7.87
2019-02-24T06:11:56.211Z,7.60
2019-02-24T06:14:38.150Z,7.00
2019-02-24T06:17:20.286Z,7.33
2019-02-24T06:20:02.623Z,8.07
2019-02-24T06:22:44.727Z,7.93
2019-02-24T06:25:27.032Z,7.00
2019-02-24T06:28:09.214Z,7.33
2019-02-24T06:30:51.089Z,7.03
2019-02-24T06:33:33.567Z,6.10
2019-02-24T06:36:15.678Z,5.70
2019-02-24T06:38:46.045Z,4.80
2019-02-24T06:41:28.057Z,5.43
2019-02-24T06:44:10.176Z,5.57
2019-02-24T06:46:52.237Z,5.47
2019-02-24T06:49:34.107Z,5.77
2019-02-24T06:52:17.792Z,4.97
2019-02-24T06:54:59.864Z,5.03
2019-02-24T06:57:42.832Z,5.13
2019-02-24T07:00:24.739Z,6.20
2019-02-24T07:02:55.185Z,6.73
2019-02-24T07:05:45.199Z,10.23
2019-02-24T07:08:27.175Z,8.30
2019-02-24T07:10:57.621Z,7.27
2019-02-24T07:16:39.439Z,6.73
2019-02-24T07:19:21.318Z,7.50
2019-02-24T07:22:03.181Z,7.97
2019-02-24T07:24:45.225Z,7.60
2019-02-24T07:27:28.590Z,6.50
2019-02-24T07:30:10.958Z,6.27
2019-02-24T07:32:53.132Z,6.17
2019-02-24T07:35:35.716Z,5.80
2019-02-24T07:38:17.534Z,6.20
2019-02-24T07:40:59.546Z,5.07
2019-02-24T07:43:41.285Z,5.23
2019-02-24T07:46:23.386Z,5.00
2019-02-24T07:49:06.050Z,5.30
2019-02-24T07:51:36.607Z,5.20
2019-02-24T07:54:28.489Z,4.60
2019-02-24T07:57:12.181Z,4.97
2019-02-24T07:59:59.221Z,4.70
2019-02-24T08:02:40.481Z,4.47
2019-02-24T08:05:24.789Z,5.10
2019-02-24T08:07:55.207Z,5.27
2019-02-24T08:10:44.912Z,5.83
2019-02-24T08:13:27.992Z,5.20
2019-02-24T08:16:10.225Z,4.90
2019-02-24T08:18:52.209Z,5.10
2019-02-24T08:21:36.921Z,4.50
2019-02-24T08:24:12.640Z,4.37
2019-02-24T08:27:03.360Z,4.47
2019-02-24T08:29:46.178Z,4.07
2019-02-24T08:32:27.677Z,4.33
2019-02-24T08:35:10.031Z,4.50
2019-02-24T08:37:52.179Z,4.20
2019-02-24T08:40:34.264Z,4.43
2019-02-24T08:43:16.645Z,4.30
2019-02-24T08:45:58.714Z,4.50
2019-02-24T08:48:40.558Z,4.73
2019-02-24T08:51:23.354Z,4.63
2019-02-24T08:54:05.783Z,4.67
2019-02-24T08:56:48.141Z,4.60
2019-02-24T08:59:30.224Z,4.30
2019-02-24T09:02:12.227Z,4.03
2019-02-24T09:04:42.711Z,4.10
2019-02-24T09:07:47.024Z,4.53
2019-02-24T09:10:22.382Z,4.67
2019-02-24T09:13:04.056Z,3.90
2019-02-24T09:15:46.395Z,4.20
2019-02-24T09:18:28.220Z,4.17
2019-02-24T09:21:09.866Z,3.97
2019-02-24T09:23:51.807Z,4.53
2019-02-24T09:26:34.239Z,4.30
2019-02-24T09:29:18.692Z,3.83
2019-02-24T09:32:00.363Z,4.07
2019-02-24T09:34:42.406Z,4.30
2019-02-24T09:37:24.846Z,3.97
2019-02-24T09:40:06.944Z,4.30
2019-02-24T09:42:49.434Z,4.17
2019-02-24T09:45:31.478Z,4.13
2019-02-24T09:48:13.841Z,4.00
2019-02-24T09:50:57.994Z,4.37
2019-02-24T09:53:40.477Z,4.23
2019-02-24T09:56:22.191Z,4.47
2019-02-24T09:59:04.318Z,4.30
2019-02-24T10:01:45.873Z,4.30
2019-02-24T10:04:28.152Z,4.50
2019-02-24T10:07:11.888Z,4.53
2019-02-24T10:09:54.058Z,4.67
2019-02-24T10:12:36.098Z,4.80
2019-02-24T10:15:18.546Z,4.70
2019-02-24T10:18:00.694Z,5.23
2019-02-24T10:20:42.534Z,4.47
2019-02-24T10:23:27.030Z,4.70
2019-02-24T10:26:08.865Z,5.10
2019-02-24T10:28:51.093Z,4.90
2019-02-24T10:31:32.770Z,4.83
2019-02-24T10:34:14.914Z,4.60
2019-02-24T10:36:56.811Z,4.83
2019-02-24T10:39:38.698Z,5.00
2019-02-24T10:42:22.656Z,4.90
2019-02-24T10:45:04.732Z,4.77
2019-02-24T10:47:49.030Z,4.80
2019-02-24T10:50:30.538Z,4.57
2019-02-24T10:53:12.635Z,5.20
2019-02-24T10:55:55.218Z,5.00
2019-02-24T10:58:37.086Z,4.53
2019-02-24T11:01:18.837Z,4.67
2019-02-24T11:04:00.959Z,4.73
2019-02-24T11:06:44.691Z,4.60
2019-02-24T11:09:26.673Z,5.00
2019-02-24T11:12:08.985Z,4.83
2019-02-24T11:14:50.648Z,4.73
2019-02-24T11:17:32.635Z,4.90
2019-02-24T11:20:14.685Z,5.60
2019-02-24T11:22:56.956Z,4.90
2019-02-24T11:25:39.812Z,4.40
2019-02-24T11:28:22.005Z,4.60
2019-02-24T11:31:04.773Z,4.73
2019-02-24T11:33:46.623Z,5.40
2019-02-24T11:36:28.390Z,5.00
2019-02-24T11:39:10.781Z,4.47
2019-02-24T11:41:52.890Z,4.83
2019-02-24T11:44:34.904Z,4.47
2019-02-24T11:47:16.951Z,4.73
2019-02-24T11:49:59.231Z,4.87
2019-02-24T11:52:41.187Z,4.67
2019-02-24T11:55:22.806Z,4.73
2019-02-24T11:58:04.539Z,4.77
2019-02-24T12:00:46.291Z,4.60
2019-02-24T12:03:28.567Z,4.90
2019-02-24T12:06:10.546Z,4.83
2019-02-24T12:08:52.917Z,4.93
2019-02-24T12:11:35.221Z,4.97
2019-02-24T12:14:16.922Z,4.07
2019-02-24T12:17:00.562Z,4.77
2019-02-24T12:19:43.005Z,4.83
2019-02-24T12:22:25.479Z,4.20
2019-02-24T12:25:07.901Z,4.20
2019-02-24T12:27:50.421Z,4.10
2019-02-24T12:30:34.041Z,4.10
2019-02-24T12:33:16.688Z,4.20
2019-02-24T12:35:59.612Z,4.83
2019-02-24T12:38:42.989Z,4.20
2019-02-24T12:41:25.247Z,4.60
2019-02-24T12:44:07.710Z,4.50
2019-02-24T12:46:50.313Z,4.77
2019-02-24T12:49:32.341Z,4.23
2019-02-24T12:52:13.911Z,3.90
2019-02-24T12:54:56.061Z,4.00
2019-02-24T12:57:37.568Z,4.37
2019-02-24T13:00:19.998Z,4.23
2019-02-24T13:03:02.795Z,4.33
2019-02-24T13:05:45.805Z,4.37
2019-02-24T13:08:28.255Z,4.57
2019-02-24T13:11:10.562Z,4.20
2019-02-24T13:13:55.318Z,4.27
2019-02-24T13:16:36.878Z,4.73
2019-02-24T13:19:18.793Z,4.10
2019-02-24T13:22:00.657Z,4.30
2019-02-24T13:24:42.567Z,4.33
2019-02-24T13:27:24.545Z,4.30
2019-02-24T13:30:06.214Z,4.10
2019-02-24T13:32:48.177Z,4.17
2019-02-24T13:35:30.509Z,3.80
2019-02-24T13:38:12.406Z,3.80
2019-02-24T13:40:54.141Z,3.90
2019-02-24T13:43:35.965Z,4.43
2019-02-24T13:46:18.079Z,4.00
2019-02-24T13:49:00.035Z,4.10
2019-02-24T13:51:42.070Z,4.27
2019-02-24T13:54:23.985Z,4.00
2019-02-24T13:57:05.910Z,4.33
2019-02-24T13:59:47.897Z,4.40
2019-02-24T14:02:29.645Z,4.30
2019-02-24T14:05:11.336Z,5.30
2019-02-24T14:07:53.367Z,4.43
2019-02-24T14:10:35.376Z,4.17
2019-02-24T14:13:17.046Z,4.20
2019-02-24T14:15:59.030Z,4.30
2019-02-24T14:18:41.130Z,3.77
2019-02-24T14:21:23.723Z,4.00
2019-02-24T14:24:05.534Z,3.80
2019-02-24T14:26:47.532Z,4.43
2019-02-24T14:29:30.069Z,3.93
2019-02-24T14:32:11.727Z,4.30
2019-02-24T14:34:54.302Z,4.23
2019-02-24T14:37:36.895Z,4.20
2019-02-24T14:40:19.046Z,4.00
2019-02-24T14:43:00.599Z,4.70
2019-02-24T14:45:49.500Z,5.03
2019-02-24T14:48:30.048Z,5.00
2019-02-24T14:51:12.320Z,5.55
2019-02-24T14:53:54.169Z,5.10
2019-02-24T14:56:36.802Z,5.20
2019-02-24T14:59:22.754Z,5.00
2019-02-24T15:02:05.405Z,5.37
2019-02-24T15:04:47.041Z,5.78
2019-02-24T15:07:29.500Z,5.90
2019-02-24T15:10:11.957Z,6.25
2019-02-24T15:12:55.767Z,6.05
2019-02-24T15:15:43.058Z,5.35
2019-02-24T15:18:25.827Z,6.20
2019-02-24T15:21:07.592Z,5.33
2019-02-24T15:23:54.115Z,5.35
2019-02-24T15:26:34.055Z,5.95
2019-02-24T15:29:15.697Z,5.30
2019-02-24T15:31:58.454Z,5.80
2019-02-24T15:34:40.970Z,5.40
2019-02-24T15:40:12.263Z,5.58
2019-02-24T15:43:10.910Z,5.92
2019-02-24T15:46:10.183Z,4.90
2019-02-24T15:48:59.424Z,4.62
2019-02-24T15:51:46.711Z,4.55
2019-02-24T15:54:28.665Z,4.97
2019-02-24T15:57:10.761Z,4.70
2019-02-24T15:59:52.713Z,4.70
2019-02-24T16:02:34.950Z,4.60
2019-02-24T16:05:16.837Z,4.73
2019-02-24T16:07:58.644Z,4.80
2019-02-24T16:10:40.973Z,4.87
2019-02-24T16:13:23.161Z,4.83
2019-02-24T16:16:09.299Z,4.70
2019-02-24T16:18:51.363Z,4.90
2019-02-24T16:21:33.494Z,4.83
2019-02-24T16:24:15.582Z,5.23
2019-02-24T16:26:57.564Z,4.83
2019-02-24T16:29:40.010Z,9.33
2019-02-24T16:32:21.953Z,5.60
2019-02-24T16:35:03.807Z,5.03
2019-02-24T16:37:45.642Z,5.23
2019-02-24T16:40:27.621Z,4.70
2019-02-24T16:43:09.530Z,5.53
2019-02-24T16:45:51.776Z,6.57
2019-02-24T16:48:22.154Z,6.67
2019-02-24T16:51:02.571Z,6.53
2019-02-24T16:53:44.968Z,6.43
2019-02-24T16:56:27.270Z,5.60
2019-02-24T16:59:09.063Z,5.50
2019-02-24T17:01:51.085Z,5.80
2019-02-24T17:04:33.143Z,6.00
2019-02-24T17:07:15.621Z,7.17
2019-02-24T17:09:57.679Z,14.47
2019-02-24T17:12:39.701Z,14.53
2019-02-24T17:15:21.654Z,13.70
2019-02-24T17:18:05.955Z,10.47
2019-02-24T17:20:47.471Z,8.33
2019-02-24T17:23:29.641Z,6.53
2019-02-24T17:26:11.609Z,6.40
2019-02-24T17:28:54.402Z,6.70
2019-02-24T17:31:36.930Z,6.37
2019-02-24T17:34:19.018Z,6.17
2019-02-24T17:37:01.152Z,6.77
2019-02-24T17:39:42.969Z,7.17
2019-02-24T17:42:26.102Z,22.40
2019-02-24T17:45:07.718Z,37.80
2019-02-24T17:47:49.307Z,27.93
2019-02-24T17:50:31.583Z,17.50
2019-02-24T17:53:13.758Z,22.98
2019-02-24T17:55:55.869Z,14.20
2019-02-24T17:58:37.556Z,11.60
2019-02-24T18:01:19.814Z,9.70
2019-02-24T18:04:02.027Z,9.30
2019-02-24T18:06:44.130Z,10.63
2019-02-24T18:09:26.314Z,10.80
2019-02-24T18:12:08.424Z,14.93
2019-02-24T18:14:52.094Z,21.30
2019-02-24T18:17:34.089Z,23.00
2019-02-24T18:20:16.137Z,17.80
2019-02-24T18:22:58.024Z,16.73
2019-02-24T18:25:39.950Z,18.17
2019-02-24T18:28:22.422Z,18.13
2019-02-24T18:31:04.175Z,14.27
2019-02-24T18:33:48.390Z,13.03
2019-02-24T18:36:29.823Z,8.00
2019-02-24T18:39:12.720Z,8.67
2019-02-24T18:41:54.898Z,8.50
2019-02-24T18:44:37.104Z,8.90
2019-02-24T18:47:19.210Z,8.53
2019-02-24T18:50:01.551Z,9.50
2019-02-24T18:52:43.706Z,10.53
2019-02-24T18:55:25.543Z,7.90
2019-02-24T18:58:07.215Z,8.07
2019-02-24T19:00:48.853Z,7.43
2019-02-24T19:03:30.430Z,7.00
2019-02-24T19:06:12.631Z,6.80
2019-02-24T19:08:54.658Z,7.20
2019-02-24T19:11:36.802Z,6.80
2019-02-24T19:14:33.544Z,7.13
2019-02-24T19:17:15.969Z,6.87
2019-02-24T19:19:58.986Z,7.43
2019-02-24T19:22:41.498Z,7.00
2019-02-24T19:25:23.531Z,7.80
2019-02-24T19:28:06.006Z,8.10
2019-02-24T19:30:48.288Z,11.33
2019-02-24T19:33:30.097Z,13.10
2019-02-24T19:36:12.282Z,15.03
2019-02-24T19:38:54.550Z,16.23
2019-02-24T19:41:36.337Z,14.00
2019-02-24T19:44:16.782Z,11.50
2019-02-24T19:46:59.382Z,10.43
2019-02-24T19:49:41.663Z,10.77
2019-02-24T19:52:23.474Z,11.23
2019-02-24T19:55:05.409Z,10.93
2019-02-24T19:57:47.518Z,9.63
2019-02-24T20:00:29.484Z,9.97
2019-02-24T20:03:13.287Z,9.73
2019-02-24T20:05:55.859Z,8.50
2019-02-24T20:08:38.647Z,7.87
2019-02-24T20:11:19.381Z,9.93
2019-02-24T20:14:01.256Z,20.17
2019-02-24T20:16:44.505Z,14.73
2019-02-24T20:19:31.780Z,13.83
2019-02-24T20:22:14.686Z,10.90
2019-02-24T20:24:57.066Z,12.63
2019-02-24T20:27:39.664Z,15.40
2019-02-24T20:30:21.843Z,10.10
2019-02-24T20:33:04.078Z,10.07
2019-02-24T20:35:46.348Z,10.17
2019-02-24T20:38:28.231Z,10.47
2019-02-24T20:41:13.099Z,10.10
2019-02-24T20:43:55.338Z,11.07
2019-02-24T20:46:37.662Z,11.83
2019-02-24T20:49:20.746Z,11.03
2019-02-24T20:52:06.656Z,10.47
2019-02-24T20:54:52.556Z,9.30
2019-02-24T20:57:35.135Z,9.63
2019-02-24T21:00:18.964Z,9.17
2019-02-24T21:03:03.821Z,8.27
2019-02-24T21:05:52.842Z,8.00
2019-02-24T21:08:36.722Z,8.33
2019-02-24T21:11:23.357Z,8.47
2019-02-24T21:13:56.673Z,8.40
2019-02-24T21:16:48.975Z,8.57
2019-02-24T21:19:34.723Z,8.80
2019-02-24T21:22:17.446Z,9.67
2019-02-24T21:24:59.680Z,8.93
2019-02-24T21:27:42.685Z,9.17
2019-02-24T21:30:26.143Z,8.90
2019-02-24T21:32:57.721Z,10.83
2019-02-24T21:35:30.783Z,9.83
2019-02-24T21:38:13.427Z,9.03
2019-02-24T21:40:56.278Z,8.50
2019-02-24T21:43:27.776Z,7.47
2019-02-24T21:46:10.884Z,7.37
2019-02-24T21:49:13.089Z,9.80
2019-02-24T21:51:54.902Z,6.90
